Main page
METAR-TAF:

METAR-TAF

Airports :

Bou Saada Airport

Bou Saâda, Algeria

latitude: 35-20N, longitude: 004-12E, elevation: 461 m

Current weather observation

The report was made 30 minutes ago, at 18:00 UTC
Wind 4 kt from the West
Temperature 12°C
Humidity 62%
Pressure 1025 hPa
Visibility 10 km or more
Few clouds at a height of 2600 ft

METAR: DAAD 271800Z 26004KT 9999 FEW026 12/05 Q1025

Time: 19:30 (18:30 UTC)

Forecast

The report was made 1 hour and 30 minutes ago, at 17:00 UTC
Forecast valid from 27 at 18 UTC to 28 at 03 UTC
Wind 2 kt from variable directions
Visibility 10 km or more
Few clouds at a height of 2600 ft

TAF: DAAD 271700Z 2718/2803 VRB02KT 9999 FEW026

Weather observations and forecasts of more than 4000 airports (METAR and TAF reports).

The available stations are represented by yellow and red dots on the map.

Hover mouse over dot to see the name of the station.

Then click to see weather observations and forecasts.

To change the map : click on the green buttons with a black cross to zoom in, on the green button with a dash to zoom out, or on the green arrows for adjacent maps.


METAR-TAF: